Time;durP1;ratioP1;P1;durP2;ratioP2;P2;SDS_P1;SDS_P2;PMS_P1;PMS_P2;Temp;Humidity;BMP_temperature;BMP_pressure;BME280_temperature;BME280_humidity;BME280_pressure;Samples;Min_cycle;Max_cycle;Signal;HPM_P1;HPM_P2
2023/06/18 00:00:19;;;;;;;7.90;4.40;;;;;;;;;;106841;1263;25448;-80
2023/06/18 00:03:08;;;;;;;8.60;4.50;;;;;;;;;;106865;1278;25357;-79
2023/06/18 00:05:35;;;;;;;8.70;4.60;;;;;;;;;;106775;1278;22529;-82
2023/06/18 00:08:02;;;;;;;8.60;5.20;;;;;;;;;;106877;1278;22523;-79
2023/06/18 00:10:37;;;;;;;7.70;4.70;;;;;;;;;;106866;1260;22547;-81
2023/06/18 00:13:08;;;;;;;9.10;5.30;;;;;;;;;;106850;1279;25281;-83
2023/06/18 00:15:37;;;;;;;8.50;5.20;;;;;;;;;;106832;1279;22528;-80
2023/06/18 00:18:05;;;;;;;10.50;5.40;;;;;;;;;;106880;1275;25284;-83
2023/06/18 00:20:43;;;;;;;9.50;4.90;;;;;;;;;;106804;1262;22538;-81
2023/06/18 00:23:17;;;;;;;10.50;5.20;;;;;;;;;;106811;1278;22514;-83
2023/06/18 00:25:47;;;;;;;9.10;4.80;;;;;;;;;;106880;1278;25292;-83
2023/06/18 00:28:14;;;;;;;7.90;4.00;;;;;;;;;;106974;1276;22811;-82
2023/06/18 00:30:51;;;;;;;8.90;4.80;;;;;;;;;;106897;1259;25347;-83
2023/06/18 00:33:18;;;;;;;9.60;4.80;;;;;;;;;;106819;1277;22523;-78
2023/06/18 00:35:45;;;;;;;9.50;4.80;;;;;;;;;;106890;1277;25332;-81
2023/06/18 00:38:15;;;;;;;8.50;5.10;;;;;;;;;;106891;1278;24196;-84
2023/06/18 00:40:43;;;;;;;8.60;5.00;;;;;;;;;;106904;1254;24296;-84
2023/06/18 00:43:12;;;;;;;9.80;5.30;;;;;;;;;;106922;1276;25888;-83
2023/06/18 00:45:47;;;;;;;8.80;5.50;;;;;;;;;;106980;1276;22690;-82
2023/06/18 00:48:14;;;;;;;8.80;5.20;;;;;;;;;;106944;1276;22540;-85
2023/06/18 00:50:47;;;;;;;10.20;5.10;;;;;;;;;;106894;1259;24217;-83
2023/06/18 00:53:25;;;;;;;9.10;4.80;;;;;;;;;;106882;1278;25262;-83
2023/06/18 00:55:56;;;;;;;8.80;4.70;;;;;;;;;;106907;1277;22550;-78
2023/06/18 00:58:27;;;;;;;8.30;4.50;;;;;;;;;;106915;1278;22635;-78
2023/06/18 01:01:15;;;;;;;9.90;5.30;;;;;;;;;;106868;1259;24253;-84
2023/06/18 01:03:42;;;;;;;9.30;4.80;;;;;;;;;;106934;1278;25329;-83
2023/06/18 01:06:12;;;;;;;9.00;5.10;;;;;;;;;;106831;1277;24303;-82
2023/06/18 01:08:55;;;;;;;9.00;4.90;;;;;;;;;;106903;1277;24337;-81
2023/06/18 01:11:37;;;;;;;9.50;5.00;;;;;;;;;;106915;1259;24336;-85
2023/06/18 01:14:17;;;;;;;7.70;4.70;;;;;;;;;;106910;1277;22563;-85
2023/06/18 01:16:49;;;;;;;10.50;5.10;;;;;;;;;;106931;1277;22484;-80
2023/06/18 01:19:47;;;;;;;9.30;4.70;;;;;;;;;;106882;1277;22520;-86
2023/06/18 01:22:37;;;;;;;9.70;5.00;;;;;;;;;;106926;1259;24195;-79
2023/06/18 01:25:07;;;;;;;9.70;4.60;;;;;;;;;;106927;1277;24292;-80
2023/06/18 01:27:43;;;;;;;9.50;4.50;;;;;;;;;;106930;1266;24250;-84
2023/06/18 01:30:14;;;;;;;9.10;5.10;;;;;;;;;;106953;1277;24944;-80
2023/06/18 01:32:46;;;;;;;8.30;4.30;;;;;;;;;;106940;1259;24226;-81
2023/06/18 01:35:16;;;;;;;9.90;4.50;;;;;;;;;;106962;1276;24413;-79
2023/06/18 01:37:46;;;;;;;9.10;4.90;;;;;;;;;;106913;1276;22540;-80
2023/06/18 01:40:47;;;;;;;;;;;;;;;;;;;;;
2023/06/18 01:43:53;;;;;;;7.90;4.70;;;;;;;;;;107150;1259;22482;-83
2023/06/18 01:46:35;;;;;;;8.90;4.60;;;;;;;;;;107037;1270;22527;-80
2023/06/18 01:49:17;;;;;;;12.60;4.70;;;;;;;;;;106963;1277;22639;-83
2023/06/18 01:51:44;;;;;;;10.70;4.30;;;;;;;;;;106900;1260;22523;-85
2023/06/18 01:54:20;;;;;;;8.00;4.40;;;;;;;;;;106934;1277;22513;-85
2023/06/18 01:56:49;;;;;;;7.90;4.50;;;;;;;;;;106908;1277;25350;-80
2023/06/18 01:59:16;;;;;;;8.40;4.70;;;;;;;;;;106911;1277;22710;-80
2023/06/18 02:01:43;;;;;;;7.70;4.50;;;;;;;;;;106932;1273;26341;-83
2023/06/18 02:04:11;;;;;;;10.30;4.60;;;;;;;;;;106936;1277;24190;-84
2023/06/18 02:06:38;;;;;;;8.80;5.00;;;;;;;;;;106957;1277;26620;-79
2023/06/18 02:09:15;;;;;;;;;;;;;;;;;;;;;
2023/06/18 02:12:01;;;;;;;8.40;4.50;;;;;;;;;;106928;1254;22535;-80
2023/06/18 02:14:38;;;;;;;7.70;4.20;;;;;;;;;;106852;1277;22547;-81
2023/06/18 02:17:14;;;;;;;8.20;4.70;;;;;;;;;;106895;1277;22533;-82
2023/06/18 02:19:43;;;;;;;8.30;4.40;;;;;;;;;;106942;1277;25330;-83
2023/06/18 02:23:16;;;;;;;8.10;4.50;;;;;;;;;;106958;1254;25361;-83
2023/06/18 02:25:39;;;;;;;8.70;4.60;;;;;;;;;;107204;1275;22539;-79
2023/06/18 02:28:06;;;;;;;8.00;4.40;;;;;;;;;;107154;1275;24883;-79
2023/06/18 02:30:43;;;;;;;;;;;;;;;;;;;;;
2023/06/18 02:33:20;;;;;;;9.30;5.30;;;;;;;;;;107198;1262;22519;-83
2023/06/18 02:36:13;;;;;;;8.60;4.90;;;;;;;;;;107200;1275;24307;-81
2023/06/18 02:39:00;;;;;;;9.20;4.90;;;;;;;;;;107123;1275;22518;-81
2023/06/18 02:41:40;;;;;;;9.70;4.80;;;;;;;;;;107207;1275;25245;-83
2023/06/18 02:44:13;;;;;;;10.60;4.60;;;;;;;;;;107208;1255;25343;-79
2023/06/18 02:46:55;;;;;;;8.00;4.70;;;;;;;;;;107022;1275;24266;-81
2023/06/18 02:49:43;;;;;;;8.50;4.80;;;;;;;;;;107211;1275;22845;-84
2023/06/18 02:52:18;;;;;;;8.80;4.90;;;;;;;;;;107004;1275;25265;-78
2023/06/18 02:55:04;;;;;;;;;;;;;;;;;;;;;
2023/06/18 02:57:31;;;;;;;8.50;5.30;;;;;;;;;;107012;1275;22945;-79
2023/06/18 02:59:58;;;;;;;9.40;5.30;;;;;;;;;;106985;1275;24467;-80
2023/06/18 03:03:29;;;;;;;9.90;5.20;;;;;;;;;;106910;1275;24221;-79
2023/06/18 03:05:33;;;;;;;9.60;5.50;;;;;;;;;;106924;1263;22541;-84
2023/06/18 03:08:09;;;;;;;9.90;4.90;;;;;;;;;;107239;1275;22519;-81
2023/06/18 03:10:39;;;;;;;9.20;4.80;;;;;;;;;;107108;1275;25204;-83
2023/06/18 03:13:11;;;;;;;8.20;4.70;;;;;;;;;;106987;1275;22520;-82
2023/06/18 03:15:45;;;;;;;8.40;4.90;;;;;;;;;;107003;1267;22647;-79
2023/06/18 03:18:13;;;;;;;9.50;5.20;;;;;;;;;;106992;1275;22530;-81
2023/06/18 03:21:04;;;;;;;9.00;5.30;;;;;;;;;;106983;1275;25406;-81
2023/06/18 03:23:36;;;;;;;10.80;5.50;;;;;;;;;;106936;1275;23860;-80
2023/06/18 03:26:06;;;;;;;8.40;5.20;;;;;;;;;;107165;1256;22564;-80
2023/06/18 03:28:34;;;;;;;12.60;5.90;;;;;;;;;;107250;1275;22987;-86
2023/06/18 03:31:01;;;;;;;8.50;4.50;;;;;;;;;;107192;1275;24334;-81
2023/06/18 03:33:33;;;;;;;8.70;4.60;;;;;;;;;;107005;1275;22535;-82
2023/06/18 03:36:15;;;;;;;10.00;4.90;;;;;;;;;;107103;1275;25581;-83
2023/06/18 03:38:45;;;;;;;9.10;4.70;;;;;;;;;;107139;1275;22525;-85
2023/06/18 03:41:20;;;;;;;8.70;5.10;;;;;;;;;;106972;1275;24354;-85
2023/06/18 03:43:47;;;;;;;8.50;4.90;;;;;;;;;;107023;1275;25282;-80
2023/06/18 03:46:16;;;;;;;8.60;5.00;;;;;;;;;;107184;1256;22623;-84
2023/06/18 03:48:44;;;;;;;9.30;5.40;;;;;;;;;;107235;1275;22523;-85
2023/06/18 03:51:12;;;;;;;8.50;5.40;;;;;;;;;;107165;1275;22782;-84
2023/06/18 03:53:44;;;;;;;10.20;5.10;;;;;;;;;;107054;1275;22771;-83
2023/06/18 03:56:14;;;;;;;9.60;5.10;;;;;;;;;;110696;1254;22310;-77
2023/06/18 03:58:41;;;;;;;9.80;4.90;;;;;;;;;;110588;1274;22113;-78
2023/06/18 04:01:08;;;;;;;9.70;4.80;;;;;;;;;;110605;1274;22355;-78
2023/06/18 04:03:36;;;;;;;9.70;5.00;;;;;;;;;;110675;1275;22444;-78
2023/06/18 04:06:03;;;;;;;8.50;4.90;;;;;;;;;;110650;1255;22108;-78
2023/06/18 04:08:31;;;;;;;10.00;5.50;;;;;;;;;;110632;1260;22994;-78
2023/06/18 04:10:58;;;;;;;9.60;5.60;;;;;;;;;;110614;1275;22188;-80
2023/06/18 04:13:25;;;;;;;8.50;5.50;;;;;;;;;;110616;1275;22098;-78
2023/06/18 04:15:51;;;;;;;9.60;5.50;;;;;;;;;;110501;1259;22217;-79
2023/06/18 04:18:18;;;;;;;8.50;5.30;;;;;;;;;;110663;1275;21888;-79
2023/06/18 04:20:46;;;;;;;8.20;4.60;;;;;;;;;;110603;1275;23114;-79
2023/06/18 04:23:14;;;;;;;9.60;5.20;;;;;;;;;;110659;1275;22129;-79
2023/06/18 04:25:40;;;;;;;7.90;4.90;;;;;;;;;;110566;1253;22106;-78
2023/06/18 04:28:07;;;;;;;8.40;5.10;;;;;;;;;;110610;1271;22719;-78
2023/06/18 04:30:34;;;;;;;9.40;5.40;;;;;;;;;;110598;1275;22259;-79
2023/06/18 04:33:01;;;;;;;9.10;5.40;;;;;;;;;;110580;1270;22423;-79
2023/06/18 04:35:28;;;;;;;7.60;4.70;;;;;;;;;;110687;1254;22130;-79
2023/06/18 04:37:55;;;;;;;10.50;5.30;;;;;;;;;;110607;1275;22111;-79
2023/06/18 04:40:21;;;;;;;9.60;5.80;;;;;;;;;;110478;1275;22129;-79
2023/06/18 04:42:49;;;;;;;9.80;5.80;;;;;;;;;;110570;1275;22105;-79
2023/06/18 04:45:22;;;;;;;8.70;5.30;;;;;;;;;;110616;1252;22340;-79
2023/06/18 04:47:48;;;;;;;9.70;5.20;;;;;;;;;;110473;1275;22883;-79
2023/06/18 04:50:15;;;;;;;9.20;5.00;;;;;;;;;;110655;1275;22162;-79
2023/06/18 04:52:45;;;;;;;8.60;5.20;;;;;;;;;;110546;1275;22108;-78
2023/06/18 04:55:12;;;;;;;9.10;5.40;;;;;;;;;;110488;1275;22160;-79
2023/06/18 04:57:40;;;;;;;8.90;5.00;;;;;;;;;;110896;1257;22145;-79
2023/06/18 05:00:08;;;;;;;8.90;4.90;;;;;;;;;;110454;1275;22082;-78
2023/06/18 05:02:36;;;;;;;10.30;5.20;;;;;;;;;;110449;1275;22102;-79
2023/06/18 05:05:03;;;;;;;9.30;5.10;;;;;;;;;;110543;1274;22153;-80
2023/06/18 05:07:30;;;;;;;8.20;5.50;;;;;;;;;;110810;1256;22112;-78
2023/06/18 05:09:58;;;;;;;8.70;5.10;;;;;;;;;;110528;1275;22872;-79
2023/06/18 05:12:25;;;;;;;9.40;5.40;;;;;;;;;;110672;1265;22082;-78
2023/06/18 05:14:53;;;;;;;8.90;5.10;;;;;;;;;;110545;1275;22144;-78
2023/06/18 05:17:20;;;;;;;13.20;5.70;;;;;;;;;;110557;1258;22103;-78
2023/06/18 05:19:47;;;;;;;9.10;5.50;;;;;;;;;;110596;1275;22092;-78
2023/06/18 05:22:14;;;;;;;8.80;5.50;;;;;;;;;;110575;1275;22178;-79
2023/06/18 05:24:41;;;;;;;9.10;5.00;;;;;;;;;;110593;1275;22124;-80
2023/06/18 05:27:08;;;;;;;8.60;5.40;;;;;;;;;;110771;1256;22112;-79
2023/06/18 05:29:35;;;;;;;8.70;5.50;;;;;;;;;;110564;1275;22126;-78
2023/06/18 05:32:02;;;;;;;11.70;5.90;;;;;;;;;;110500;1275;22536;-78
2023/06/18 05:34:31;;;;;;;9.60;5.40;;;;;;;;;;110348;1275;22098;-78
2023/06/18 05:36:57;;;;;;;9.00;5.70;;;;;;;;;;110582;1253;22125;-82
2023/06/18 05:39:24;;;;;;;10.10;6.20;;;;;;;;;;110359;1275;22200;-78
2023/06/18 05:41:51;;;;;;;8.30;5.70;;;;;;;;;;110424;1275;22146;-78
2023/06/18 05:44:18;;;;;;;12.40;6.00;;;;;;;;;;110292;1277;22117;-79
2023/06/18 05:46:46;;;;;;;10.80;6.40;;;;;;;;;;110319;1253;22199;-78
2023/06/18 05:49:12;;;;;;;8.40;5.60;;;;;;;;;;110465;1276;22011;-78
2023/06/18 05:51:41;;;;;;;9.80;6.00;;;;;;;;;;110322;1276;22104;-79
2023/06/18 05:54:08;;;;;;;8.50;5.80;;;;;;;;;;110163;1276;22132;-78
2023/06/18 05:56:35;;;;;;;9.80;6.00;;;;;;;;;;110399;1276;22302;-80
2023/06/18 05:59:02;;;;;;;9.50;5.70;;;;;;;;;;110585;1262;22139;-79
2023/06/18 06:01:34;;;;;;;10.80;6.00;;;;;;;;;;110243;1277;22077;-79
2023/06/18 06:04:01;;;;;;;11.90;6.60;;;;;;;;;;110265;1277;22095;-78
2023/06/18 06:06:28;;;;;;;11.60;6.90;;;;;;;;;;110323;1277;22187;-78
2023/06/18 06:09:16;;;;;;;13.70;7.70;;;;;;;;;;110578;1260;22393;-79
2023/06/18 06:11:43;;;;;;;13.80;7.70;;;;;;;;;;110578;1277;22181;-78
2023/06/18 06:14:11;;;;;;;12.10;8.00;;;;;;;;;;110432;1276;21969;-78
2023/06/18 06:16:38;;;;;;;13.40;9.10;;;;;;;;;;110263;1277;22309;-79
2023/06/18 06:19:05;;;;;;;13.90;9.50;;;;;;;;;;110787;1259;22114;-79
2023/06/18 06:21:33;;;;;;;13.10;8.80;;;;;;;;;;110308;1276;22086;-80
2023/06/18 06:24:01;;;;;;;15.90;9.90;;;;;;;;;;110303;1277;22099;-78
2023/06/18 06:26:28;;;;;;;17.40;10.80;;;;;;;;;;110437;1277;22314;-78
2023/06/18 06:28:57;;;;;;;19.60;10.70;;;;;;;;;;110471;1260;22108;-78
2023/06/18 06:31:24;;;;;;;17.10;10.00;;;;;;;;;;110328;1277;22109;-78
2023/06/18 06:33:51;;;;;;;23.20;13.40;;;;;;;;;;110428;1276;22305;-78
2023/06/18 06:36:18;;;;;;;22.10;12.60;;;;;;;;;;110305;1276;22119;-78
2023/06/18 06:38:45;;;;;;;19.10;11.40;;;;;;;;;;110423;1260;22167;-78
2023/06/18 06:41:12;;;;;;;21.60;12.70;;;;;;;;;;110288;1276;22890;-79
2023/06/18 06:43:38;;;;;;;22.40;12.60;;;;;;;;;;110346;1277;22832;-78
2023/06/18 06:46:31;;;;;;;24.50;13.60;;;;;;;;;;110210;1277;22106;-78
2023/06/18 06:49:15;;;;;;;24.50;13.00;;;;;;;;;;110403;1262;22944;-78
2023/06/18 06:52:16;;;;;;;24.60;14.70;;;;;;;;;;110221;1277;22101;-79
2023/06/18 06:54:49;;;;;;;24.20;14.10;;;;;;;;;;110353;1277;22141;-78
2023/06/18 06:57:18;;;;;;;24.50;15.40;;;;;;;;;;110182;1277;22124;-79
2023/06/18 06:59:50;;;;;;;25.40;15.90;;;;;;;;;;110559;1259;22121;-78
2023/06/18 07:02:17;;;;;;;23.70;14.10;;;;;;;;;;110342;1277;22506;-78
2023/06/18 07:04:47;;;;;;;23.30;13.00;;;;;;;;;;110352;1278;22779;-79
2023/06/18 07:07:15;;;;;;;19.00;12.30;;;;;;;;;;110306;1277;22715;-78
2023/06/18 07:09:42;;;;;;;19.70;12.00;;;;;;;;;;110464;1260;22848;-78
2023/06/18 07:12:10;;;;;;;17.10;11.30;;;;;;;;;;110322;1274;22107;-78
2023/06/18 07:14:36;;;;;;;15.40;10.20;;;;;;;;;;110181;1277;22104;-78
2023/06/18 07:17:06;;;;;;;18.20;10.30;;;;;;;;;;110268;1277;22098;-78
2023/06/18 07:19:33;;;;;;;13.60;9.20;;;;;;;;;;110640;1259;22208;-78
2023/06/18 07:22:00;;;;;;;14.00;9.10;;;;;;;;;;110345;1277;22262;-78
2023/06/18 07:24:29;;;;;;;16.00;10.20;;;;;;;;;;110360;1277;22113;-80
2023/06/18 07:26:56;;;;;;;14.30;9.30;;;;;;;;;;110345;1275;22339;-79
2023/06/18 07:29:22;;;;;;;12.30;8.30;;;;;;;;;;110330;1264;22047;-78
2023/06/18 07:31:49;;;;;;;12.70;8.70;;;;;;;;;;110297;1278;22135;-79
2023/06/18 07:34:16;;;;;;;12.30;8.30;;;;;;;;;;110314;1278;22581;-79
2023/06/18 07:36:43;;;;;;;13.50;9.00;;;;;;;;;;110319;1277;22151;-78
2023/06/18 07:39:10;;;;;;;16.30;9.60;;;;;;;;;;110372;1259;22811;-78
2023/06/18 07:41:37;;;;;;;15.60;9.80;;;;;;;;;;110190;1278;22871;-78
2023/06/18 07:44:04;;;;;;;16.10;9.30;;;;;;;;;;110285;1278;22781;-79
2023/06/18 07:46:31;;;;;;;14.10;9.10;;;;;;;;;;110297;1278;22147;-78
2023/06/18 07:48:57;;;;;;;14.60;10.50;;;;;;;;;;110281;1255;22361;-86
2023/06/18 07:51:24;;;;;;;18.50;12.00;;;;;;;;;;110259;1278;22962;-78
2023/06/18 07:53:51;;;;;;;18.20;11.90;;;;;;;;;;110268;1278;22183;-77
2023/06/18 07:56:18;;;;;;;15.60;11.20;;;;;;;;;;110310;1278;22759;-78
2023/06/18 07:58:45;;;;;;;15.00;10.40;;;;;;;;;;110279;1278;21993;-79
2023/06/18 08:01:15;;;;;;;14.40;9.50;;;;;;;;;;110682;1258;22330;-78
2023/06/18 08:03:42;;;;;;;15.70;10.60;;;;;;;;;;110176;1278;22117;-77
2023/06/18 08:06:09;;;;;;;18.20;12.50;;;;;;;;;;110317;1275;22159;-77
2023/06/18 08:08:36;;;;;;;15.30;9.90;;;;;;;;;;110302;1278;22106;-82
2023/06/18 08:11:05;;;;;;;14.80;9.80;;;;;;;;;;110267;1262;22147;-78
2023/06/18 08:13:32;;;;;;;14.40;10.00;;;;;;;;;;110410;1278;22094;-78
2023/06/18 08:16:00;;;;;;;14.40;9.50;;;;;;;;;;110434;1278;22110;-79
2023/06/18 08:18:26;;;;;;;16.50;9.50;;;;;;;;;;110338;1268;22122;-78
2023/06/18 08:20:55;;;;;;;18.50;12.70;;;;;;;;;;110321;1260;22842;-77
2023/06/18 08:23:21;;;;;;;15.60;9.80;;;;;;;;;;110295;1278;23289;-77
2023/06/18 08:25:51;;;;;;;16.30;10.70;;;;;;;;;;110267;1278;22845;-77
2023/06/18 08:28:17;;;;;;;16.20;9.80;;;;;;;;;;110171;1278;22425;-78
2023/06/18 08:30:44;;;;;;;17.10;10.80;;;;;;;;;;110526;1260;22169;-78
2023/06/18 08:33:11;;;;;;;17.90;10.10;;;;;;;;;;110440;1278;22083;-78
2023/06/18 08:35:38;;;;;;;17.10;10.30;;;;;;;;;;110433;1278;22323;-78
2023/06/18 08:38:05;;;;;;;15.80;11.80;;;;;;;;;;110303;1278;22097;-77
2023/06/18 08:40:48;;;;;;;16.10;11.10;;;;;;;;;;110501;1260;22335;-78
2023/06/18 08:43:26;;;;;;;15.40;9.80;;;;;;;;;;110269;1278;22849;-78
2023/06/18 08:45:53;;;;;;;13.80;9.80;;;;;;;;;;110239;1278;22137;-79
2023/06/18 08:48:22;;;;;;;16.10;10.20;;;;;;;;;;110255;1278;23259;-79
2023/06/18 08:50:50;;;;;;;12.90;8.40;;;;;;;;;;110427;1260;22138;-78
2023/06/18 08:53:20;;;;;;;12.50;8.40;;;;;;;;;;110234;1278;22109;-78
2023/06/18 08:55:47;;;;;;;13.20;8.90;;;;;;;;;;110285;1278;22102;-78
2023/06/18 08:58:18;;;;;;;13.50;8.60;;;;;;;;;;110220;1278;22765;-78
2023/06/18 09:00:48;;;;;;;14.40;8.30;;;;;;;;;;110310;1256;22125;-78
2023/06/18 09:03:16;;;;;;;13.70;8.90;;;;;;;;;;110221;1278;22108;-78
2023/06/18 09:05:44;;;;;;;15.10;9.50;;;;;;;;;;110219;1278;22838;-78
2023/06/18 09:08:11;;;;;;;14.10;9.00;;;;;;;;;;110262;1278;22092;-79
2023/06/18 09:10:38;;;;;;;15.40;9.10;;;;;;;;;;110237;1256;22862;-79
2023/06/18 09:13:05;;;;;;;13.70;9.50;;;;;;;;;;110089;1278;22117;-78
2023/06/18 09:15:31;;;;;;;14.70;9.20;;;;;;;;;;110232;1278;22846;-78
2023/06/18 09:17:59;;;;;;;13.70;8.90;;;;;;;;;;110184;1278;22092;-78
2023/06/18 09:20:28;;;;;;;14.70;9.40;;;;;;;;;;110294;1268;22123;-80
2023/06/18 09:22:56;;;;;;;17.80;10.70;;;;;;;;;;110331;1262;22744;-78
2023/06/18 09:25:24;;;;;;;14.90;10.30;;;;;;;;;;110283;1278;22873;-78
2023/06/18 09:27:55;;;;;;;14.70;9.50;;;;;;;;;;110121;1278;22117;-78
2023/06/18 09:30:25;;;;;;;16.40;9.70;;;;;;;;;;110355;1278;22052;-78
2023/06/18 09:32:53;;;;;;;15.70;10.20;;;;;;;;;;110409;1261;22115;-78
2023/06/18 09:35:20;;;;;;;16.40;10.50;;;;;;;;;;110102;1278;22180;-77
2023/06/18 09:37:47;;;;;;;16.30;10.30;;;;;;;;;;110247;1279;22100;-79
2023/06/18 09:40:19;;;;;;;15.60;9.40;;;;;;;;;;110111;1277;22198;-76
2023/06/18 09:42:48;;;;;;;15.30;9.70;;;;;;;;;;110316;1260;22793;-80
2023/06/18 09:45:16;;;;;;;13.40;9.20;;;;;;;;;;110156;1279;22114;-82
2023/06/18 09:47:47;;;;;;;18.70;9.40;;;;;;;;;;110235;1279;22140;-78
2023/06/18 09:50:17;;;;;;;15.00;9.40;;;;;;;;;;110153;1279;22233;-78
2023/06/18 09:52:51;;;;;;;15.70;9.10;;;;;;;;;;110408;1263;22124;-80
2023/06/18 09:55:41;;;;;;;13.10;9.00;;;;;;;;;;110156;1279;22106;-79
2023/06/18 09:58:08;;;;;;;14.90;7.90;;;;;;;;;;110293;1279;22097;-78
2023/06/18 10:00:37;;;;;;;12.60;8.40;;;;;;;;;;110201;1276;22160;-77
2023/06/18 10:03:11;;;;;;;13.60;9.50;;;;;;;;;;110497;1261;22125;-79
2023/06/18 10:05:41;;;;;;;14.20;8.90;;;;;;;;;;110308;1279;22107;-77
2023/06/18 10:08:08;;;;;;;12.50;8.30;;;;;;;;;;110165;1279;22772;-77
2023/06/18 10:10:38;;;;;;;11.60;7.20;;;;;;;;;;110168;1279;22090;-78
2023/06/18 10:13:12;;;;;;;9.60;6.50;;;;;;;;;;110339;1257;23018;-77
2023/06/18 10:16:04;;;;;;;12.40;8.00;;;;;;;;;;110142;1269;22118;-79
2023/06/18 10:18:35;;;;;;;12.70;7.40;;;;;;;;;;110230;1279;22164;-78
2023/06/18 10:21:05;;;;;;;12.90;8.10;;;;;;;;;;110279;1279;22116;-77
2023/06/18 10:23:33;;;;;;;13.60;7.60;;;;;;;;;;110336;1257;22201;-80
2023/06/18 10:26:02;;;;;;;11.60;8.50;;;;;;;;;;110172;1279;22793;-78
2023/06/18 10:28:30;;;;;;;12.50;8.50;;;;;;;;;;110295;1279;22100;-78
2023/06/18 10:30:59;;;;;;;12.20;8.40;;;;;;;;;;110214;1279;21974;-83
2023/06/18 10:33:27;;;;;;;10.70;7.50;;;;;;;;;;110324;1258;22102;-78
2023/06/18 10:35:54;;;;;;;11.70;7.20;;;;;;;;;;110300;1279;22118;-78
2023/06/18 10:38:22;;;;;;;13.30;7.10;;;;;;;;;;110151;1279;22910;-78
2023/06/18 10:41:07;;;;;;;10.00;6.80;;;;;;;;;;110174;1279;22102;-78
2023/06/18 10:43:39;;;;;;;9.40;5.60;;;;;;;;;;110348;1257;22129;-78
2023/06/18 10:46:16;;;;;;;8.80;5.20;;;;;;;;;;110139;1279;22308;-78
2023/06/18 10:49:20;;;;;;;7.90;4.60;;;;;;;;;;110116;1279;22124;-79
2023/06/18 10:52:19;;;;;;;8.00;4.70;;;;;;;;;;109934;1284;22857;-78
2023/06/18 10:54:48;;;;;;;11.30;7.10;;;;;;;;;;109935;1267;22147;-78
2023/06/18 10:57:18;;;;;;;11.60;7.60;;;;;;;;;;109802;1285;22230;-78
2023/06/18 10:59:49;;;;;;;11.80;7.70;;;;;;;;;;109923;1284;23002;-79
2023/06/18 11:02:31;;;;;;;13.00;7.60;;;;;;;;;;107110;1284;3583670;-78
2023/06/18 11:05:00;;;;;;;10.20;6.40;;;;;;;;;;110070;1266;22154;-78
2023/06/18 11:07:30;;;;;;;10.30;6.20;;;;;;;;;;109855;1285;22180;-78
2023/06/18 11:10:04;;;;;;;9.20;6.00;;;;;;;;;;109956;1284;22786;-78
2023/06/18 11:12:37;;;;;;;9.60;5.80;;;;;;;;;;109809;1284;22263;-79
2023/06/18 11:15:32;;;;;;;9.60;5.60;;;;;;;;;;110028;1263;22158;-78
2023/06/18 11:18:04;;;;;;;9.20;6.00;;;;;;;;;;109825;1285;22156;-78
2023/06/18 11:20:39;;;;;;;9.70;6.30;;;;;;;;;;109893;1285;22164;-77
2023/06/18 11:23:07;;;;;;;10.80;6.40;;;;;;;;;;109810;1285;21780;-78
2023/06/18 11:25:36;;;;;;;9.60;6.70;;;;;;;;;;109981;1276;22807;-78
2023/06/18 11:28:07;;;;;;;11.70;7.20;;;;;;;;;;110110;1279;22141;-79
2023/06/18 11:30:37;;;;;;;10.70;6.60;;;;;;;;;;110282;1279;22771;-79
2023/06/18 11:33:06;;;;;;;8.80;5.80;;;;;;;;;;110186;1267;22931;-78
2023/06/18 11:35:35;;;;;;;10.70;6.10;;;;;;;;;;110228;1260;22126;-79
2023/06/18 11:38:04;;;;;;;9.80;5.90;;;;;;;;;;110168;1280;22477;-79
2023/06/18 11:40:34;;;;;;;9.60;4.90;;;;;;;;;;110071;1280;22153;-77
2023/06/18 11:49:56;;;;;;;13.00;6.70;;;;;;;;;;103714;1295;545701;-81
2023/06/18 11:52:24;;;;;;;13.00;8.60;;;;;;;;;;106349;1287;22561;-79
2023/06/18 11:54:52;;;;;;;13.20;8.40;;;;;;;;;;106177;1287;22537;-78
2023/06/18 11:57:21;;;;;;;12.00;7.90;;;;;;;;;;106264;1282;22533;-79
2023/06/18 11:59:54;;;;;;;10.90;6.90;;;;;;;;;;106228;1269;25607;-79
2023/06/18 12:02:22;;;;;;;11.50;5.90;;;;;;;;;;106085;1287;25361;-80
2023/06/18 12:04:52;;;;;;;12.10;7.30;;;;;;;;;;104544;1278;24256;-82
2023/06/18 12:07:23;;;;;;;9.90;6.50;;;;;;;;;;106430;1278;23893;-80
2023/06/18 12:09:52;;;;;;;10.80;6.30;;;;;;;;;;106817;1259;24847;-78
2023/06/18 12:12:26;;;;;;;12.30;7.00;;;;;;;;;;106769;1266;22978;-78
2023/06/18 12:14:53;;;;;;;13.50;7.50;;;;;;;;;;106787;1278;24203;-81
2023/06/18 12:17:21;;;;;;;12.50;8.20;;;;;;;;;;106705;1278;25313;-84
2023/06/18 12:19:52;;;;;;;12.90;7.00;;;;;;;;;;106733;1269;22770;-78
2023/06/18 12:22:19;;;;;;;10.40;7.20;;;;;;;;;;106572;1278;22521;-79
2023/06/18 12:24:46;;;;;;;12.60;7.30;;;;;;;;;;106805;1278;23911;-85
2023/06/18 12:27:14;;;;;;;10.50;6.60;;;;;;;;;;106618;1278;22532;-78
2023/06/18 12:29:45;;;;;;;12.00;6.30;;;;;;;;;;106709;1254;25562;-78
2023/06/18 12:32:12;;;;;;;10.00;6.20;;;;;;;;;;106530;1278;25223;-83
2023/06/18 12:34:43;;;;;;;9.80;5.50;;;;;;;;;;106675;1278;22518;-80
2023/06/18 12:37:15;;;;;;;7.10;4.20;;;;;;;;;;106778;1278;22624;-78
2023/06/18 12:40:01;;;;;;;9.70;4.70;;;;;;;;;;106513;1254;24996;-78
2023/06/18 12:42:31;;;;;;;9.10;5.10;;;;;;;;;;110250;1278;22137;-78
2023/06/18 12:45:02;;;;;;;12.00;7.30;;;;;;;;;;110268;1278;22252;-89
2023/06/18 12:47:31;;;;;;;10.60;5.30;;;;;;;;;;110237;1278;22208;-80
2023/06/18 12:49:58;;;;;;;10.80;5.70;;;;;;;;;;110402;1256;22163;-79
2023/06/18 12:52:25;;;;;;;10.30;4.90;;;;;;;;;;110220;1278;22838;-78
2023/06/18 12:54:52;;;;;;;8.00;4.80;;;;;;;;;;110399;1278;22114;-79
2023/06/18 12:57:20;;;;;;;8.60;5.20;;;;;;;;;;110195;1278;22089;-78
2023/06/18 12:59:49;;;;;;;8.70;4.90;;;;;;;;;;110252;1278;21955;-78
2023/06/18 13:02:19;;;;;;;9.00;4.90;;;;;;;;;;110234;1258;22098;-78
2023/06/18 13:04:46;;;;;;;7.60;4.00;;;;;;;;;;110441;1277;22095;-78
2023/06/18 13:07:13;;;;;;;10.40;4.50;;;;;;;;;;110256;1277;22325;-79
2023/06/18 13:09:42;;;;;;;10.50;5.00;;;;;;;;;;110458;1273;22108;-79
2023/06/18 13:12:10;;;;;;;8.60;4.80;;;;;;;;;;110293;1256;22128;-79
2023/06/18 13:14:38;;;;;;;7.40;3.60;;;;;;;;;;110372;1277;22105;-79
2023/06/18 13:17:05;;;;;;;11.30;4.50;;;;;;;;;;110214;1277;22776;-82
2023/06/18 13:19:32;;;;;;;8.20;3.80;;;;;;;;;;110283;1278;22781;-80
2023/06/18 13:21:59;;;;;;;9.20;4.60;;;;;;;;;;110552;1256;22137;-79
2023/06/18 13:24:27;;;;;;;8.60;4.70;;;;;;;;;;110251;1278;22104;-79
2023/06/18 13:26:54;;;;;;;8.10;4.50;;;;;;;;;;110278;1276;22094;-82
2023/06/18 13:29:21;;;;;;;7.20;3.90;;;;;;;;;;110436;1278;22113;-80
2023/06/18 13:31:57;;;;;;;8.20;4.10;;;;;;;;;;110503;1256;22158;-82
2023/06/18 13:34:24;;;;;;;8.00;4.10;;;;;;;;;;110462;1277;22136;-80
2023/06/18 13:36:51;;;;;;;8.90;4.50;;;;;;;;;;110436;1277;22125;-78
2023/06/18 13:39:18;;;;;;;9.50;4.60;;;;;;;;;;110357;1275;22128;-81
2023/06/18 13:41:45;;;;;;;8.20;4.10;;;;;;;;;;110227;1259;23005;-78
2023/06/18 13:44:12;;;;;;;8.60;4.20;;;;;;;;;;110396;1278;22122;-78
2023/06/18 13:46:38;;;;;;;9.00;4.70;;;;;;;;;;110224;1278;22126;-79
2023/06/18 13:49:05;;;;;;;9.10;4.60;;;;;;;;;;110240;1278;22344;-79
2023/06/18 13:51:32;;;;;;;7.90;4.20;;;;;;;;;;110389;1256;22107;-79
2023/06/18 13:53:59;;;;;;;7.70;3.80;;;;;;;;;;110256;1278;22863;-78
2023/06/18 13:56:29;;;;;;;7.20;4.10;;;;;;;;;;110235;1278;22113;-79
2023/06/18 13:58:56;;;;;;;11.20;4.40;;;;;;;;;;110253;1278;22071;-79
2023/06/18 14:01:25;;;;;;;8.20;4.50;;;;;;;;;;110394;1256;22137;-79
2023/06/18 14:03:56;;;;;;;7.50;4.30;;;;;;;;;;110413;1272;22138;-82
2023/06/18 14:06:30;;;;;;;7.60;4.00;;;;;;;;;;110264;1278;22182;-79
2023/06/18 14:08:57;;;;;;;7.30;4.00;;;;;;;;;;110392;1278;22165;-79
2023/06/18 14:11:30;;;;;;;8.30;5.00;;;;;;;;;;110155;1255;23123;-82
2023/06/18 14:14:00;;;;;;;9.90;4.80;;;;;;;;;;110223;1278;21960;-80
2023/06/18 14:16:30;;;;;;;9.20;4.80;;;;;;;;;;110266;1278;22365;-82
2023/06/18 14:18:57;;;;;;;9.10;4.70;;;;;;;;;;110257;1278;22106;-80
2023/06/18 14:21:23;;;;;;;7.10;4.00;;;;;;;;;;110406;1278;22728;-82
2023/06/18 14:23:51;;;;;;;6.80;3.50;;;;;;;;;;110483;1259;22121;-79
2023/06/18 14:26:18;;;;;;;7.10;3.90;;;;;;;;;;110258;1278;22210;-80
2023/06/18 14:28:45;;;;;;;7.70;4.40;;;;;;;;;;110253;1278;22977;-81
2023/06/18 14:31:12;;;;;;;7.30;3.90;;;;;;;;;;110390;1278;22120;-79
2023/06/18 14:33:39;;;;;;;7.00;4.10;;;;;;;;;;110626;1257;22164;-79
2023/06/18 14:36:06;;;;;;;13.20;4.30;;;;;;;;;;110257;1278;23298;-81
2023/06/18 14:38:33;;;;;;;11.00;5.30;;;;;;;;;;110373;1278;22811;-79
2023/06/18 14:41:00;;;;;;;8.80;4.70;;;;;;;;;;110250;1278;21705;-82
2023/06/18 14:43:30;;;;;;;9.00;5.00;;;;;;;;;;110335;1260;22160;-78
2023/06/18 14:45:57;;;;;;;7.70;4.40;;;;;;;;;;110135;1279;22140;-79
2023/06/18 14:48:25;;;;;;;8.60;3.90;;;;;;;;;;110219;1279;22140;-79
2023/06/18 14:50:52;;;;;;;8.50;4.30;;;;;;;;;;110161;1278;22119;-77
2023/06/18 14:53:22;;;;;;;7.40;4.40;;;;;;;;;;110166;1262;22771;-77